createdAt,value
2019-05-10T00:00:40.763Z,16.15
2019-05-10T00:06:00.876Z,16.17
2019-05-10T00:11:32.332Z,16.14
2019-05-10T00:16:34.773Z,16.16
2019-05-10T00:21:36.829Z,16.01
2019-05-10T00:26:38.913Z,16.04
2019-05-10T00:31:41.024Z,16.04
2019-05-10T00:36:43.102Z,16.09
2019-05-10T00:41:45.149Z,16.07
2019-05-10T00:46:47.391Z,16.01
2019-05-10T00:51:49.472Z,16.06
2019-05-10T00:56:51.485Z,16.08
2019-05-10T01:01:53.580Z,16.17
2019-05-10T01:06:56.671Z,16.18
2019-05-10T01:11:58.789Z,16.19
2019-05-10T01:17:00.896Z,16.19
2019-05-10T01:22:02.951Z,16.18
2019-05-10T01:27:05.001Z,16.13
2019-05-10T01:32:07.146Z,16.13
2019-05-10T01:37:09.200Z,16.16
2019-05-10T01:42:11.282Z,16.08
2019-05-10T01:47:13.329Z,16.11
2019-05-10T01:52:15.464Z,15.99
2019-05-10T01:57:17.535Z,15.91
2019-05-10T02:02:19.645Z,15.87
2019-05-10T02:07:21.724Z,15.86
2019-05-10T02:12:23.758Z,15.83
2019-05-10T02:17:25.887Z,15.71
2019-05-10T02:22:27.954Z,15.69
2019-05-10T02:27:30.039Z,15.53
2019-05-10T02:32:32.132Z,15.60
2019-05-10T02:37:34.377Z,15.48
2019-05-10T02:42:36.711Z,15.39
2019-05-10T02:47:38.785Z,15.30
2019-05-10T02:52:40.823Z,15.36
2019-05-10T02:57:43.984Z,15.37
2019-05-10T03:02:46.633Z,15.43
2019-05-10T03:07:52.418Z,15.44
2019-05-10T03:12:58.208Z,15.53
2019-05-10T03:18:01.604Z,15.54
2019-05-10T03:23:05.136Z,15.48
2019-05-10T03:28:07.199Z,15.43
2019-05-10T03:33:09.280Z,15.56
2019-05-10T03:38:11.690Z,15.45
2019-05-10T03:43:13.879Z,15.52
2019-05-10T03:48:15.953Z,15.53
2019-05-10T03:53:17.993Z,15.45
2019-05-10T03:58:20.073Z,15.49
2019-05-10T04:03:22.121Z,15.43
2019-05-10T04:08:24.321Z,15.43
2019-05-10T04:13:26.352Z,15.42
2019-05-10T04:18:28.437Z,15.44
2019-05-10T04:23:30.510Z,15.45
2019-05-10T04:28:32.579Z,15.34
2019-05-10T04:33:34.701Z,15.44
2019-05-10T04:38:36.782Z,15.37
2019-05-10T04:43:38.863Z,15.46
2019-05-10T04:48:40.956Z,15.56
2019-05-10T04:53:43.020Z,15.44
2019-05-10T04:58:45.060Z,15.50
2019-05-10T05:03:47.145Z,15.56
2019-05-10T05:08:49.259Z,15.66
2019-05-10T05:13:51.335Z,15.71
2019-05-10T05:18:53.443Z,15.68
2019-05-10T05:23:55.517Z,15.68
2019-05-10T05:28:57.750Z,15.67
2019-05-10T05:34:04.977Z,15.79
2019-05-10T05:39:05.782Z,16.64
2019-05-10T05:44:07.883Z,17.18
2019-05-10T05:49:09.922Z,16.99
2019-05-10T05:54:15.075Z,16.83
2019-05-10T05:59:17.334Z,16.65
2019-05-10T06:04:20.085Z,16.59
2019-05-10T06:09:22.156Z,16.57
2019-05-10T06:14:24.292Z,16.55
2019-05-10T06:19:29.421Z,17.12
2019-05-10T06:24:33.809Z,17.14
2019-05-10T06:29:34.272Z,17.22
2019-05-10T06:34:38.962Z,17.39
2019-05-10T06:39:40.694Z,18.00
2019-05-10T06:44:42.760Z,17.71
2019-05-10T06:49:50.778Z,17.52
2019-05-10T06:54:48.799Z,17.49
2019-05-10T06:59:50.990Z,17.55
2019-05-10T07:04:53.082Z,17.70
2019-05-10T07:10:12.284Z,17.60
2019-05-10T07:15:03.362Z,17.87
2019-05-10T07:20:03.844Z,17.97
2019-05-10T07:25:07.601Z,18.33
2019-05-10T07:30:10.227Z,18.47
2019-05-10T07:35:12.604Z,18.63
2019-05-10T07:40:14.797Z,18.81
2019-05-10T07:45:18.704Z,19.31
2019-05-10T07:50:20.929Z,19.63
2019-05-10T07:55:28.690Z,19.77
2019-05-10T08:00:29.082Z,19.80
2019-05-10T08:05:31.175Z,19.73
2019-05-10T08:10:33.229Z,19.90
2019-05-10T08:15:35.405Z,20.05
2019-05-10T08:20:49.612Z,20.20
2019-05-10T08:25:46.881Z,20.24
2019-05-10T08:30:58.479Z,20.41
2019-05-10T08:35:52.473Z,20.43
2019-05-10T08:40:55.765Z,20.32
2019-05-10T08:45:58.096Z,20.24
2019-05-10T08:51:04.053Z,20.00
2019-05-10T08:56:07.791Z,19.76
2019-05-10T09:01:20.592Z,19.55
2019-05-10T09:06:16.702Z,19.56
2019-05-10T09:11:16.976Z,19.38
2019-05-10T09:16:19.074Z,19.28
2019-05-10T09:21:22.311Z,19.11
2019-05-10T09:26:26.770Z,18.99
2019-05-10T09:31:34.058Z,18.73
2019-05-10T09:36:38.051Z,18.55
2019-05-10T09:41:44.645Z,18.39
2019-05-10T09:46:47.211Z,18.37
2019-05-10T09:51:49.553Z,18.43
2019-05-10T09:56:52.456Z,18.59
2019-05-10T10:01:57.024Z,18.78
2019-05-10T10:06:58.890Z,19.14
2019-05-10T10:12:03.003Z,19.43
2019-05-10T10:17:05.081Z,19.48
2019-05-10T10:22:11.025Z,19.31
2019-05-10T10:27:12.934Z,19.19
2019-05-10T10:32:15.051Z,19.13
2019-05-10T10:37:22.124Z,19.19
2019-05-10T10:42:21.164Z,19.45
2019-05-10T10:47:28.354Z,19.63
2019-05-10T10:52:27.841Z,19.58
2019-05-10T10:57:30.040Z,19.46
2019-05-10T11:02:33.906Z,19.52
2019-05-10T11:07:41.043Z,19.62
2019-05-10T11:12:41.393Z,19.87
2019-05-10T11:17:43.713Z,19.80
2019-05-10T11:22:50.917Z,19.72
2019-05-10T11:27:56.426Z,19.80
2019-05-10T11:32:53.997Z,19.86
2019-05-10T11:37:56.106Z,19.96
2019-05-10T11:42:58.206Z,20.23
2019-05-10T11:48:02.167Z,20.39
2019-05-10T11:53:06.848Z,20.62
2019-05-10T11:58:12.280Z,20.66
2019-05-10T12:03:18.405Z,20.71
2019-05-10T12:08:16.262Z,20.58
2019-05-10T12:13:20.852Z,20.63
2019-05-10T12:26:05.395Z,20.64
2019-05-10T12:26:59.165Z,20.81
2019-05-10T12:28:35.324Z,20.96
2019-05-10T12:33:50.439Z,21.02
2019-05-10T12:38:52.223Z,20.73
2019-05-10T12:44:02.748Z,20.52
2019-05-10T12:48:58.448Z,20.21
2019-05-10T12:54:00.479Z,20.05
2019-05-10T12:59:02.586Z,20.02
2019-05-10T13:04:13.760Z,19.89
2019-05-10T13:09:08.678Z,19.93
2019-05-10T13:14:10.723Z,19.70
2019-05-10T13:19:14.286Z,19.45
2019-05-10T13:24:16.742Z,19.26
2019-05-10T13:29:18.827Z,19.18
2019-05-10T13:34:24.060Z,19.49
2019-05-10T13:39:27.406Z,19.45
2019-05-10T13:44:28.939Z,19.29
2019-05-10T13:49:31.069Z,19.29
2019-05-10T13:54:36.189Z,19.46
2019-05-10T13:59:37.123Z,19.61
2019-05-10T14:04:40.210Z,19.69
2019-05-10T14:09:42.379Z,19.50
2019-05-10T14:14:44.416Z,19.48
2019-05-10T14:19:46.518Z,19.45
2019-05-10T14:24:52.806Z,19.31
2019-05-10T14:29:52.655Z,19.25
2019-05-10T14:34:54.724Z,19.29
2019-05-10T14:39:56.811Z,19.26
2019-05-10T14:44:58.940Z,19.34
2019-05-10T14:50:01.093Z,19.28
2019-05-10T14:55:04.034Z,19.42
2019-05-10T15:00:06.878Z,19.45
2019-05-10T15:05:16.134Z,19.62
2019-05-10T15:10:13.610Z,19.48
2019-05-10T15:15:15.877Z,19.39
2019-05-10T15:20:17.982Z,19.43
2019-05-10T15:25:20.159Z,19.51
2019-05-10T15:30:22.350Z,19.51
2019-05-10T15:35:24.423Z,19.60
2019-05-10T15:40:26.491Z,19.53
2019-05-10T15:45:28.725Z,19.55
2019-05-10T15:50:32.479Z,19.51
2019-05-10T15:55:35.929Z,19.56
2019-05-10T16:00:41.229Z,19.56
2019-05-10T16:05:43.986Z,19.63
2019-05-10T16:10:48.188Z,19.57
2019-05-10T16:15:51.543Z,19.63
2019-05-10T16:20:54.239Z,19.55
2019-05-10T16:25:56.307Z,19.47
2019-05-10T16:30:58.395Z,19.51
2019-05-10T16:36:00.438Z,19.47
2019-05-10T16:41:02.518Z,19.47
2019-05-10T16:46:04.753Z,19.48
2019-05-10T16:51:09.920Z,19.53
2019-05-10T16:56:13.510Z,19.49
2019-05-10T17:01:18.567Z,19.28
2019-05-10T17:06:18.667Z,19.10
2019-05-10T17:11:20.754Z,18.94
2019-05-10T17:16:22.851Z,18.88
2019-05-10T17:21:24.905Z,18.85
2019-05-10T17:26:26.975Z,18.71
2019-05-10T17:31:29.041Z,18.46
2019-05-10T17:36:31.194Z,18.21
2019-05-10T17:41:33.286Z,17.98
2019-05-10T17:46:35.357Z,17.83
2019-05-10T17:51:37.415Z,17.79
2019-05-10T17:56:40.668Z,17.71
2019-05-10T18:01:43.044Z,17.65
2019-05-10T18:06:45.123Z,17.48
2019-05-10T18:11:47.182Z,17.42
2019-05-10T18:16:50.146Z,17.27
2019-05-10T18:21:54.838Z,17.14
2019-05-10T18:26:56.610Z,17.01
2019-05-10T18:31:58.715Z,16.89
2019-05-10T18:37:00.774Z,16.85
2019-05-10T18:42:02.857Z,16.76
2019-05-10T18:47:04.977Z,16.66
2019-05-10T18:52:07.053Z,16.57
2019-05-10T18:57:12.218Z,16.58
2019-05-10T19:02:17.944Z,16.60
2019-05-10T19:07:17.039Z,16.57
2019-05-10T19:12:26.131Z,16.57
2019-05-10T19:17:31.691Z,16.55
2019-05-10T19:22:33.727Z,16.55
2019-05-10T19:27:38.857Z,16.50
2019-05-10T19:32:39.795Z,16.45
2019-05-10T19:37:41.849Z,16.36
2019-05-10T19:42:44.963Z,16.30
2019-05-10T19:47:49.828Z,16.23
2019-05-10T19:52:51.210Z,16.18
2019-05-10T19:57:54.672Z,16.13
2019-05-10T20:02:57.345Z,16.04
2019-05-10T20:07:59.429Z,15.98
2019-05-10T20:13:01.569Z,15.91
2019-05-10T20:18:04.185Z,15.85
2019-05-10T20:23:06.644Z,15.82
2019-05-10T20:28:09.710Z,15.80
2019-05-10T20:33:11.784Z,15.74
2019-05-10T20:38:13.823Z,15.69
2019-05-10T20:43:15.893Z,15.60
2019-05-10T20:48:18.027Z,15.53
2019-05-10T20:53:20.172Z,15.46
2019-05-10T20:58:22.302Z,15.41
2019-05-10T21:03:24.377Z,15.37
2019-05-10T21:08:26.459Z,15.35
2019-05-10T21:13:28.589Z,15.37
2019-05-10T21:18:30.686Z,15.41
2019-05-10T21:23:32.766Z,15.47
2019-05-10T21:28:36.474Z,15.51
2019-05-10T21:33:38.523Z,15.53
2019-05-10T21:38:41.773Z,15.54
2019-05-10T21:43:44.176Z,15.54
2019-05-10T21:48:46.302Z,15.52
2019-05-10T21:53:48.414Z,15.53
2019-05-10T21:58:50.458Z,15.61
2019-05-10T22:03:52.520Z,15.62
2019-05-10T22:08:54.622Z,15.60
2019-05-10T22:13:56.687Z,15.51
2019-05-10T22:19:00.729Z,15.45
2019-05-10T22:24:02.822Z,15.41
2019-05-10T22:29:04.890Z,15.25
2019-05-10T22:34:06.979Z,15.22
2019-05-10T22:39:09.031Z,15.13
2019-05-10T22:44:11.109Z,15.13
2019-05-10T22:49:13.300Z,15.18
2019-05-10T22:54:15.374Z,15.18
2019-05-10T22:59:17.414Z,15.18
2019-05-10T23:04:19.445Z,15.17
2019-05-10T23:09:24.776Z,15.12
2019-05-10T23:14:25.653Z,15.09
2019-05-10T23:19:27.705Z,15.07
2019-05-10T23:24:38.972Z,15.04
2019-05-10T23:29:41.117Z,15.03
2019-05-10T23:34:43.180Z,15.03
2019-05-10T23:39:45.222Z,15.04
2019-05-10T23:44:47.339Z,15.05
2019-05-10T23:49:49.412Z,15.08
2019-05-10T23:54:51.519Z,15.03
2019-05-10T23:59:53.628Z,15.01
